sensor_id;sensor_type;location;lat;lon;timestamp;temperature;humidity
13606;DHT22;6874;52.084;5.090;2022-09-29T00:00:20;8.90;99.90
13606;DHT22;6874;52.084;5.090;2022-09-29T00:02:45;8.90;99.90
13606;DHT22;6874;52.084;5.090;2022-09-29T00:05:11;8.90;99.90
13606;DHT22;6874;52.084;5.090;2022-09-29T00:07:37;8.90;99.90
13606;DHT22;6874;52.084;5.090;2022-09-29T00:10:02;8.80;99.90
13606;DHT22;6874;52.084;5.090;2022-09-29T00:12:29;8.80;99.90
13606;DHT22;6874;52.084;5.090;2022-09-29T00:14:54;8.80;99.90
13606;DHT22;6874;52.084;5.090;2022-09-29T00:17:20;8.80;99.90
13606;DHT22;6874;52.084;5.090;2022-09-29T00:19:45;8.80;99.90
13606;DHT22;6874;52.084;5.090;2022-09-29T00:22:11;8.80;99.90
13606;DHT22;6874;52.084;5.090;2022-09-29T00:24:36;8.80;99.90
13606;DHT22;6874;52.084;5.090;2022-09-29T00:27:02;8.80;99.90
13606;DHT22;6874;52.084;5.090;2022-09-29T00:29:28;8.70;99.90
13606;DHT22;6874;52.084;5.090;2022-09-29T00:31:53;8.80;99.90
13606;DHT22;6874;52.084;5.090;2022-09-29T00:34:19;8.70;99.90
13606;DHT22;6874;52.084;5.090;2022-09-29T00:36:45;8.70;99.90
13606;DHT22;6874;52.084;5.090;2022-09-29T00:39:11;8.70;99.90
13606;DHT22;6874;52.084;5.090;2022-09-29T00:41:38;8.70;99.90
13606;DHT22;6874;52.084;5.090;2022-09-29T00:44:05;8.70;99.90
13606;DHT22;6874;52.084;5.090;2022-09-29T00:46:36;8.60;99.90
13606;DHT22;6874;52.084;5.090;2022-09-29T00:49:09;8.60;99.90
13606;DHT22;6874;52.084;5.090;2022-09-29T00:51:36;8.60;99.90
13606;DHT22;6874;52.084;5.090;2022-09-29T00:54:05;8.60;99.90
13606;DHT22;6874;52.084;5.090;2022-09-29T00:56:31;8.60;99.90
13606;DHT22;6874;52.084;5.090;2022-09-29T00:59:02;8.60;99.90
13606;DHT22;6874;52.084;5.090;2022-09-29T01:01:31;8.60;99.90
13606;DHT22;6874;52.084;5.090;2022-09-29T01:04:17;8.50;99.90
13606;DHT22;6874;52.084;5.090;2022-09-29T01:06:48;8.50;99.90
13606;DHT22;6874;52.084;5.090;2022-09-29T01:09:17;8.50;99.90
13606;DHT22;6874;52.084;5.090;2022-09-29T01:11:43;8.50;99.90
13606;DHT22;6874;52.084;5.090;2022-09-29T01:14:09;8.50;99.90
13606;DHT22;6874;52.084;5.090;2022-09-29T01:16:36;8.40;99.90
13606;DHT22;6874;52.084;5.090;2022-09-29T01:36:43;8.30;99.90
13606;DHT22;6874;52.084;5.090;2022-09-29T01:39:19;8.30;99.90
13606;DHT22;6874;52.084;5.090;2022-09-29T01:41:59;8.30;99.90
13606;DHT22;6874;52.084;5.090;2022-09-29T01:44:33;8.20;99.90
13606;DHT22;6874;52.084;5.090;2022-09-29T01:47:10;8.20;99.90
13606;DHT22;6874;52.084;5.090;2022-09-29T01:49:39;8.20;99.90
13606;DHT22;6874;52.084;5.090;2022-09-29T01:52:10;8.20;99.90
13606;DHT22;6874;52.084;5.090;2022-09-29T01:54:49;8.20;99.90
13606;DHT22;6874;52.084;5.090;2022-09-29T02:02:42;8.10;99.90
13606;DHT22;6874;52.084;5.090;2022-09-29T02:05:18;8.10;99.90
13606;DHT22;6874;52.084;5.090;2022-09-29T02:07:46;8.10;99.90
13606;DHT22;6874;52.084;5.090;2022-09-29T02:10:18;8.10;99.90
13606;DHT22;6874;52.084;5.090;2022-09-29T02:12:45;8.10;99.90
13606;DHT22;6874;52.084;5.090;2022-09-29T02:15:16;8.00;99.90
13606;DHT22;6874;52.084;5.090;2022-09-29T02:17:45;8.00;99.90
13606;DHT22;6874;52.084;5.090;2022-09-29T02:20:12;8.00;99.90
13606;DHT22;6874;52.084;5.090;2022-09-29T02:22:39;8.00;99.90
13606;DHT22;6874;52.084;5.090;2022-09-29T02:25:08;8.00;99.90
13606;DHT22;6874;52.084;5.090;2022-09-29T02:27:35;8.00;99.90
13606;DHT22;6874;52.084;5.090;2022-09-29T02:30:01;7.90;99.90
13606;DHT22;6874;52.084;5.090;2022-09-29T02:32:28;7.90;99.90
13606;DHT22;6874;52.084;5.090;2022-09-29T02:34:54;7.90;99.90
13606;DHT22;6874;52.084;5.090;2022-09-29T02:37:47;7.90;99.90
13606;DHT22;6874;52.084;5.090;2022-09-29T02:45:46;7.80;99.90
13606;DHT22;6874;52.084;5.090;2022-09-29T02:56:25;7.70;99.90
13606;DHT22;6874;52.084;5.090;2022-09-29T02:58:56;7.70;99.90
13606;DHT22;6874;52.084;5.090;2022-09-29T03:01:23;7.70;99.90
13606;DHT22;6874;52.084;5.090;2022-09-29T03:03:49;7.70;99.90
13606;DHT22;6874;52.084;5.090;2022-09-29T03:06:15;7.70;99.90
13606;DHT22;6874;52.084;5.090;2022-09-29T03:08:43;7.60;99.90
13606;DHT22;6874;52.084;5.090;2022-09-29T03:11:08;7.60;99.90
13606;DHT22;6874;52.084;5.090;2022-09-29T03:13:34;7.60;99.90
13606;DHT22;6874;52.084;5.090;2022-09-29T03:16:00;7.60;99.90
13606;DHT22;6874;52.084;5.090;2022-09-29T03:18:25;7.60;99.90
13606;DHT22;6874;52.084;5.090;2022-09-29T03:20:53;7.60;99.90
13606;DHT22;6874;52.084;5.090;2022-09-29T03:23:19;7.50;99.90
13606;DHT22;6874;52.084;5.090;2022-09-29T03:25:45;7.60;99.90
13606;DHT22;6874;52.084;5.090;2022-09-29T03:28:10;7.50;99.90
13606;DHT22;6874;52.084;5.090;2022-09-29T03:30:36;7.50;99.90
13606;DHT22;6874;52.084;5.090;2022-09-29T03:33:01;7.50;99.90
13606;DHT22;6874;52.084;5.090;2022-09-29T03:35:27;7.50;99.90
13606;DHT22;6874;52.084;5.090;2022-09-29T03:37:57;7.50;99.90
13606;DHT22;6874;52.084;5.090;2022-09-29T03:40:23;7.50;99.90
13606;DHT22;6874;52.084;5.090;2022-09-29T03:42:49;7.40;99.90
13606;DHT22;6874;52.084;5.090;2022-09-29T03:45:15;7.40;99.90
13606;DHT22;6874;52.084;5.090;2022-09-29T03:47:40;7.40;99.90
13606;DHT22;6874;52.084;5.090;2022-09-29T03:50:06;7.40;99.90
13606;DHT22;6874;52.084;5.090;2022-09-29T03:52:32;7.40;99.90
13606;DHT22;6874;52.084;5.090;2022-09-29T03:54:57;7.30;99.90
13606;DHT22;6874;52.084;5.090;2022-09-29T03:57:23;7.30;99.90
13606;DHT22;6874;52.084;5.090;2022-09-29T03:59:48;7.30;99.90
13606;DHT22;6874;52.084;5.090;2022-09-29T04:02:14;7.30;99.90
13606;DHT22;6874;52.084;5.090;2022-09-29T04:04:43;7.30;99.90
13606;DHT22;6874;52.084;5.090;2022-09-29T04:07:08;7.30;99.90
13606;DHT22;6874;52.084;5.090;2022-09-29T04:09:34;7.30;99.90
13606;DHT22;6874;52.084;5.090;2022-09-29T04:11:59;7.30;99.90
13606;DHT22;6874;52.084;5.090;2022-09-29T04:14:25;7.30;99.90
13606;DHT22;6874;52.084;5.090;2022-09-29T04:16:51;7.20;99.90
13606;DHT22;6874;52.084;5.090;2022-09-29T04:19:16;7.20;99.90
13606;DHT22;6874;52.084;5.090;2022-09-29T04:21:42;7.20;99.90
13606;DHT22;6874;52.084;5.090;2022-09-29T04:24:07;7.20;99.90
13606;DHT22;6874;52.084;5.090;2022-09-29T04:26:33;7.20;99.90
13606;DHT22;6874;52.084;5.090;2022-09-29T04:28:58;7.20;99.90
13606;DHT22;6874;52.084;5.090;2022-09-29T04:31:24;7.20;99.90
13606;DHT22;6874;52.084;5.090;2022-09-29T04:33:50;7.20;99.90
13606;DHT22;6874;52.084;5.090;2022-09-29T04:36:16;7.10;99.90
13606;DHT22;6874;52.084;5.090;2022-09-29T04:38:42;7.10;99.90
13606;DHT22;6874;52.084;5.090;2022-09-29T04:41:07;7.10;99.90
13606;DHT22;6874;52.084;5.090;2022-09-29T04:43:33;7.10;99.90
13606;DHT22;6874;52.084;5.090;2022-09-29T04:46:06;7.10;99.90
13606;DHT22;6874;52.084;5.090;2022-09-29T04:48:33;7.00;99.90
13606;DHT22;6874;52.084;5.090;2022-09-29T04:50:59;7.00;99.90
13606;DHT22;6874;52.084;5.090;2022-09-29T04:53:25;7.00;99.90
13606;DHT22;6874;52.084;5.090;2022-09-29T04:55:50;7.00;99.90
13606;DHT22;6874;52.084;5.090;2022-09-29T04:58:16;7.00;99.90
13606;DHT22;6874;52.084;5.090;2022-09-29T05:00:41;7.00;99.90
13606;DHT22;6874;52.084;5.090;2022-09-29T05:03:07;6.90;99.90
13606;DHT22;6874;52.084;5.090;2022-09-29T05:05:32;7.00;99.90
13606;DHT22;6874;52.084;5.090;2022-09-29T05:07:58;6.90;99.90
13606;DHT22;6874;52.084;5.090;2022-09-29T05:10:25;6.90;99.90
13606;DHT22;6874;52.084;5.090;2022-09-29T05:12:50;6.90;99.90
13606;DHT22;6874;52.084;5.090;2022-09-29T05:15:17;6.90;99.90
13606;DHT22;6874;52.084;5.090;2022-09-29T05:17:43;6.90;99.90
13606;DHT22;6874;52.084;5.090;2022-09-29T05:20:09;6.80;99.90
13606;DHT22;6874;52.084;5.090;2022-09-29T05:22:35;6.80;99.90
13606;DHT22;6874;52.084;5.090;2022-09-29T05:25:00;6.80;99.90
13606;DHT22;6874;52.084;5.090;2022-09-29T05:27:26;6.80;99.90
13606;DHT22;6874;52.084;5.090;2022-09-29T05:29:51;6.80;99.90
13606;DHT22;6874;52.084;5.090;2022-09-29T05:32:17;6.80;99.90
13606;DHT22;6874;52.084;5.090;2022-09-29T05:34:43;6.80;99.90
13606;DHT22;6874;52.084;5.090;2022-09-29T05:37:08;6.70;99.90
13606;DHT22;6874;52.084;5.090;2022-09-29T05:39:34;6.70;99.90
13606;DHT22;6874;52.084;5.090;2022-09-29T05:42:02;6.70;99.90
13606;DHT22;6874;52.084;5.090;2022-09-29T05:44:28;6.70;99.90
13606;DHT22;6874;52.084;5.090;2022-09-29T05:46:53;6.70;99.90
13606;DHT22;6874;52.084;5.090;2022-09-29T05:49:19;6.70;99.90
13606;DHT22;6874;52.084;5.090;2022-09-29T05:51:44;6.70;99.90
13606;DHT22;6874;52.084;5.090;2022-09-29T05:54:10;6.60;99.90
13606;DHT22;6874;52.084;5.090;2022-09-29T05:56:35;6.70;99.90
13606;DHT22;6874;52.084;5.090;2022-09-29T05:59:01;6.60;99.90
13606;DHT22;6874;52.084;5.090;2022-09-29T06:01:27;6.60;99.90
13606;DHT22;6874;52.084;5.090;2022-09-29T06:03:53;6.60;99.90
13606;DHT22;6874;52.084;5.090;2022-09-29T06:06:22;6.60;99.90
13606;DHT22;6874;52.084;5.090;2022-09-29T06:08:48;6.60;99.90
13606;DHT22;6874;52.084;5.090;2022-09-29T06:11:16;6.60;99.90
13606;DHT22;6874;52.084;5.090;2022-09-29T06:13:44;6.60;99.90
13606;DHT22;6874;52.084;5.090;2022-09-29T06:16:11;6.60;99.90
13606;DHT22;6874;52.084;5.090;2022-09-29T06:18:37;6.60;99.90
13606;DHT22;6874;52.084;5.090;2022-09-29T06:21:08;6.60;99.90
13606;DHT22;6874;52.084;5.090;2022-09-29T06:23:34;6.50;99.90
13606;DHT22;6874;52.084;5.090;2022-09-29T06:26:01;6.50;99.90
13606;DHT22;6874;52.084;5.090;2022-09-29T06:28:29;6.50;99.90
13606;DHT22;6874;52.084;5.090;2022-09-29T06:31:06;6.50;99.90
13606;DHT22;6874;52.084;5.090;2022-09-29T06:33:33;6.50;99.90
13606;DHT22;6874;52.084;5.090;2022-09-29T06:36:03;6.50;99.90
13606;DHT22;6874;52.084;5.090;2022-09-29T06:38:47;6.50;99.90
13606;DHT22;6874;52.084;5.090;2022-09-29T06:41:13;6.50;99.90
13606;DHT22;6874;52.084;5.090;2022-09-29T06:43:38;6.50;99.90
13606;DHT22;6874;52.084;5.090;2022-09-29T06:46:04;6.50;99.90
13606;DHT22;6874;52.084;5.090;2022-09-29T06:48:30;6.40;99.90
13606;DHT22;6874;52.084;5.090;2022-09-29T06:50:56;6.50;99.90
13606;DHT22;6874;52.084;5.090;2022-09-29T06:53:22;6.50;99.90
13606;DHT22;6874;52.084;5.090;2022-09-29T06:55:55;6.40;99.90
13606;DHT22;6874;52.084;5.090;2022-09-29T06:58:25;6.40;99.90
13606;DHT22;6874;52.084;5.090;2022-09-29T07:00:51;6.40;99.90
13606;DHT22;6874;52.084;5.090;2022-09-29T07:03:16;6.40;99.90
13606;DHT22;6874;52.084;5.090;2022-09-29T07:05:42;6.40;99.90
13606;DHT22;6874;52.084;5.090;2022-09-29T07:08:08;6.40;99.90
13606;DHT22;6874;52.084;5.090;2022-09-29T07:10:34;6.50;99.90
13606;DHT22;6874;52.084;5.090;2022-09-29T07:13:00;6.30;99.90
13606;DHT22;6874;52.084;5.090;2022-09-29T07:15:25;6.50;99.90
13606;DHT22;6874;52.084;5.090;2022-09-29T07:17:57;6.50;99.90
13606;DHT22;6874;52.084;5.090;2022-09-29T07:20:25;6.50;99.90
13606;DHT22;6874;52.084;5.090;2022-09-29T07:22:50;6.50;99.90
13606;DHT22;6874;52.084;5.090;2022-09-29T07:25:16;6.50;99.90
13606;DHT22;6874;52.084;5.090;2022-09-29T07:27:41;6.50;99.90
13606;DHT22;6874;52.084;5.090;2022-09-29T07:30:07;6.50;99.90
13606;DHT22;6874;52.084;5.090;2022-09-29T07:32:33;6.50;99.90
13606;DHT22;6874;52.084;5.090;2022-09-29T07:34:59;6.50;99.90
13606;DHT22;6874;52.084;5.090;2022-09-29T07:37:28;6.50;99.90
13606;DHT22;6874;52.084;5.090;2022-09-29T07:39:55;6.50;99.90
13606;DHT22;6874;52.084;5.090;2022-09-29T07:42:20;6.50;99.90
13606;DHT22;6874;52.084;5.090;2022-09-29T07:44:46;6.60;99.90
13606;DHT22;6874;52.084;5.090;2022-09-29T07:47:13;6.50;99.90
13606;DHT22;6874;52.084;5.090;2022-09-29T07:49:42;6.60;99.90
13606;DHT22;6874;52.084;5.090;2022-09-29T07:52:07;6.60;99.90
13606;DHT22;6874;52.084;5.090;2022-09-29T07:54:33;6.60;99.90
13606;DHT22;6874;52.084;5.090;2022-09-29T07:56:59;6.60;99.90
13606;DHT22;6874;52.084;5.090;2022-09-29T07:59:27;6.60;99.90
13606;DHT22;6874;52.084;5.090;2022-09-29T08:01:52;6.60;99.90
13606;DHT22;6874;52.084;5.090;2022-09-29T08:04:18;6.60;99.90
13606;DHT22;6874;52.084;5.090;2022-09-29T08:06:44;6.70;99.90
13606;DHT22;6874;52.084;5.090;2022-09-29T08:09:11;6.70;99.90
13606;DHT22;6874;52.084;5.090;2022-09-29T08:11:38;6.70;99.90
13606;DHT22;6874;52.084;5.090;2022-09-29T08:14:05;6.70;99.90
13606;DHT22;6874;52.084;5.090;2022-09-29T08:16:30;6.70;99.90
13606;DHT22;6874;52.084;5.090;2022-09-29T08:18:57;6.80;99.90
13606;DHT22;6874;52.084;5.090;2022-09-29T08:21:23;6.80;99.90
13606;DHT22;6874;52.084;5.090;2022-09-29T08:23:48;6.80;99.90
13606;DHT22;6874;52.084;5.090;2022-09-29T08:26:16;6.80;99.90
13606;DHT22;6874;52.084;5.090;2022-09-29T08:28:43;6.80;99.90
13606;DHT22;6874;52.084;5.090;2022-09-29T08:31:18;6.80;99.90
13606;DHT22;6874;52.084;5.090;2022-09-29T08:33:45;6.80;99.90
13606;DHT22;6874;52.084;5.090;2022-09-29T08:36:11;6.90;99.90
13606;DHT22;6874;52.084;5.090;2022-09-29T08:38:45;6.90;99.90
13606;DHT22;6874;52.084;5.090;2022-09-29T08:44:10;6.90;99.90
13606;DHT22;6874;52.084;5.090;2022-09-29T08:46:56;6.90;99.90
13606;DHT22;6874;52.084;5.090;2022-09-29T08:49:32;7.00;99.90
13606;DHT22;6874;52.084;5.090;2022-09-29T08:52:10;7.00;99.90
13606;DHT22;6874;52.084;5.090;2022-09-29T08:54:40;7.00;99.90
13606;DHT22;6874;52.084;5.090;2022-09-29T08:57:13;7.00;99.90
13606;DHT22;6874;52.084;5.090;2022-09-29T08:59:57;7.10;99.90
13606;DHT22;6874;52.084;5.090;2022-09-29T09:10:28;7.20;99.90
13606;DHT22;6874;52.084;5.090;2022-09-29T09:13:11;7.20;99.90
13606;DHT22;6874;52.084;5.090;2022-09-29T09:15:49;7.20;99.90
13606;DHT22;6874;52.084;5.090;2022-09-29T09:21:09;7.30;99.90
13606;DHT22;6874;52.084;5.090;2022-09-29T09:23:56;7.30;99.90
13606;DHT22;6874;52.084;5.090;2022-09-29T09:26:32;7.30;99.90
13606;DHT22;6874;52.084;5.090;2022-09-29T09:29:30;7.30;99.90
13606;DHT22;6874;52.084;5.090;2022-09-29T09:32:07;7.40;99.90
13606;DHT22;6874;52.084;5.090;2022-09-29T09:34:45;7.40;99.90
13606;DHT22;6874;52.084;5.090;2022-09-29T09:37:15;7.40;99.90
13606;DHT22;6874;52.084;5.090;2022-09-29T09:39:53;7.50;99.90
13606;DHT22;6874;52.084;5.090;2022-09-29T09:42:24;7.50;99.90
13606;DHT22;6874;52.084;5.090;2022-09-29T09:44:54;7.50;99.90
13606;DHT22;6874;52.084;5.090;2022-09-29T09:49:51;7.60;99.90
13606;DHT22;6874;52.084;5.090;2022-09-29T09:52:28;7.70;99.90
13606;DHT22;6874;52.084;5.090;2022-09-29T09:54:58;7.70;99.90
13606;DHT22;6874;52.084;5.090;2022-09-29T10:00:13;7.80;99.90
13606;DHT22;6874;52.084;5.090;2022-09-29T10:02:53;7.80;99.90
13606;DHT22;6874;52.084;5.090;2022-09-29T10:05:22;7.90;99.90
13606;DHT22;6874;52.084;5.090;2022-09-29T10:07:49;8.00;99.90
13606;DHT22;6874;52.084;5.090;2022-09-29T10:10:21;8.00;99.90
13606;DHT22;6874;52.084;5.090;2022-09-29T10:13:05;8.00;99.90
13606;DHT22;6874;52.084;5.090;2022-09-29T10:15:58;8.10;99.90
13606;DHT22;6874;52.084;5.090;2022-09-29T10:18:52;8.20;99.90
13606;DHT22;6874;52.084;5.090;2022-09-29T10:21:37;8.20;99.90
13606;DHT22;6874;52.084;5.090;2022-09-29T10:24:04;8.30;99.90
13606;DHT22;6874;52.084;5.090;2022-09-29T10:26:42;8.30;99.90
13606;DHT22;6874;52.084;5.090;2022-09-29T10:29:22;8.40;99.90
13606;DHT22;6874;52.084;5.090;2022-09-29T10:32:04;8.50;99.90
13606;DHT22;6874;52.084;5.090;2022-09-29T10:34:33;8.50;99.90
13606;DHT22;6874;52.084;5.090;2022-09-29T10:39:44;8.70;99.90
13606;DHT22;6874;52.084;5.090;2022-09-29T10:42:36;8.80;99.90
13606;DHT22;6874;52.084;5.090;2022-09-29T10:45:28;8.80;99.90
13606;DHT22;6874;52.084;5.090;2022-09-29T10:50:29;9.10;99.90
13606;DHT22;6874;52.084;5.090;2022-09-29T10:55:24;9.30;99.90
13606;DHT22;6874;52.084;5.090;2022-09-29T10:57:55;9.30;99.90
13606;DHT22;6874;52.084;5.090;2022-09-29T11:00:35;9.40;99.90
13606;DHT22;6874;52.084;5.090;2022-09-29T11:05:30;9.80;99.90
13606;DHT22;6874;52.084;5.090;2022-09-29T11:07:56;10.00;99.90
13606;DHT22;6874;52.084;5.090;2022-09-29T11:10:32;10.10;99.90
13606;DHT22;6874;52.084;5.090;2022-09-29T11:12:58;10.30;99.90
13606;DHT22;6874;52.084;5.090;2022-09-29T11:15:39;10.40;99.90
13606;DHT22;6874;52.084;5.090;2022-09-29T11:18:23;10.70;99.90
13606;DHT22;6874;52.084;5.090;2022-09-29T11:23:58;11.00;99.90
13606;DHT22;6874;52.084;5.090;2022-09-29T11:26:43;11.20;99.90
13606;DHT22;6874;52.084;5.090;2022-09-29T11:37:27;11.70;99.90
13606;DHT22;6874;52.084;5.090;2022-09-29T11:40:16;11.80;99.90
13606;DHT22;6874;52.084;5.090;2022-09-29T11:43:13;12.00;99.90
13606;DHT22;6874;52.084;5.090;2022-09-29T11:46:04;12.10;99.90
13606;DHT22;6874;52.084;5.090;2022-09-29T11:51:50;12.40;99.90
13606;DHT22;6874;52.084;5.090;2022-09-29T11:55:14;12.50;99.90
13606;DHT22;6874;52.084;5.090;2022-09-29T12:00:07;12.70;99.90
13606;DHT22;6874;52.084;5.090;2022-09-29T12:03:02;12.80;99.90
13606;DHT22;6874;52.084;5.090;2022-09-29T12:08:45;13.00;99.90
13606;DHT22;6874;52.084;5.090;2022-09-29T12:14:19;13.20;99.90
13606;DHT22;6874;52.084;5.090;2022-09-29T12:16:56;13.30;99.90
13606;DHT22;6874;52.084;5.090;2022-09-29T12:19:26;13.30;99.90
13606;DHT22;6874;52.084;5.090;2022-09-29T12:21:54;13.40;99.90
13606;DHT22;6874;52.084;5.090;2022-09-29T12:24:40;13.50;99.90
13606;DHT22;6874;52.084;5.090;2022-09-29T12:27:15;13.50;99.90
13606;DHT22;6874;52.084;5.090;2022-09-29T12:29:47;13.60;99.90
13606;DHT22;6874;52.084;5.090;2022-09-29T12:34:49;13.70;99.90
13606;DHT22;6874;52.084;5.090;2022-09-29T12:37:48;13.80;99.90
13606;DHT22;6874;52.084;5.090;2022-09-29T12:40:38;13.90;99.90
13606;DHT22;6874;52.084;5.090;2022-09-29T12:43:34;14.00;99.90
13606;DHT22;6874;52.084;5.090;2022-09-29T12:46:22;14.10;99.90
13606;DHT22;6874;52.084;5.090;2022-09-29T12:49:10;14.20;99.90
13606;DHT22;6874;52.084;5.090;2022-09-29T12:51:44;14.30;99.90
13606;DHT22;6874;52.084;5.090;2022-09-29T12:54:19;14.40;99.90
13606;DHT22;6874;52.084;5.090;2022-09-29T12:59:28;14.60;99.90
13606;DHT22;6874;52.084;5.090;2022-09-29T13:02:32;14.60;99.90
13606;DHT22;6874;52.084;5.090;2022-09-29T13:11:03;14.80;99.90
13606;DHT22;6874;52.084;5.090;2022-09-29T13:16:44;14.80;99.90
13606;DHT22;6874;52.084;5.090;2022-09-29T13:19:37;14.80;99.90
13606;DHT22;6874;52.084;5.090;2022-09-29T13:25:15;14.70;99.90
13606;DHT22;6874;52.084;5.090;2022-09-29T13:27:44;14.70;99.90
13606;DHT22;6874;52.084;5.090;2022-09-29T13:35:27;14.60;99.90
13606;DHT22;6874;52.084;5.090;2022-09-29T13:38:02;14.60;99.90
13606;DHT22;6874;52.084;5.090;2022-09-29T13:40:29;14.60;99.90
13606;DHT22;6874;52.084;5.090;2022-09-29T13:43:00;14.50;99.90
13606;DHT22;6874;52.084;5.090;2022-09-29T13:48:00;14.50;99.90
13606;DHT22;6874;52.084;5.090;2022-09-29T13:50:48;14.50;99.90
13606;DHT22;6874;52.084;5.090;2022-09-29T13:58:26;14.50;99.90
13606;DHT22;6874;52.084;5.090;2022-09-29T14:00:54;14.50;99.90
13606;DHT22;6874;52.084;5.090;2022-09-29T14:08:49;14.50;99.90
13606;DHT22;6874;52.084;5.090;2022-09-29T14:11:21;14.50;99.90
13606;DHT22;6874;52.084;5.090;2022-09-29T14:14:00;14.50;99.90
13606;DHT22;6874;52.084;5.090;2022-09-29T14:19:21;14.50;99.90
13606;DHT22;6874;52.084;5.090;2022-09-29T14:21:54;14.60;99.90
13606;DHT22;6874;52.084;5.090;2022-09-29T14:29:49;14.60;99.90
13606;DHT22;6874;52.084;5.090;2022-09-29T14:32:39;14.60;99.90
13606;DHT22;6874;52.084;5.090;2022-09-29T14:37:39;14.70;99.90
13606;DHT22;6874;52.084;5.090;2022-09-29T14:40:07;14.70;99.90
13606;DHT22;6874;52.084;5.090;2022-09-29T14:43:07;14.80;99.90
13606;DHT22;6874;52.084;5.090;2022-09-29T14:51:59;14.80;99.90
13606;DHT22;6874;52.084;5.090;2022-09-29T14:54:58;14.90;99.90
13606;DHT22;6874;52.084;5.090;2022-09-29T15:00:14;15.00;99.90
13606;DHT22;6874;52.084;5.090;2022-09-29T15:02:45;15.00;99.90
13606;DHT22;6874;52.084;5.090;2022-09-29T15:05:14;15.00;99.90
13606;DHT22;6874;52.084;5.090;2022-09-29T15:07:41;15.00;99.90
13606;DHT22;6874;52.084;5.090;2022-09-29T15:10:21;15.10;99.90
13606;DHT22;6874;52.084;5.090;2022-09-29T15:12:47;15.00;99.90
13606;DHT22;6874;52.084;5.090;2022-09-29T15:15:36;15.00;99.90
13606;DHT22;6874;52.084;5.090;2022-09-29T15:18:21;15.00;99.90
13606;DHT22;6874;52.084;5.090;2022-09-29T15:26:33;15.00;99.90
13606;DHT22;6874;52.084;5.090;2022-09-29T15:29:05;15.00;99.90
13606;DHT22;6874;52.084;5.090;2022-09-29T15:31:32;14.90;99.90
13606;DHT22;6874;52.084;5.090;2022-09-29T15:33:59;15.00;99.90
13606;DHT22;6874;52.084;5.090;2022-09-29T15:36:31;14.90;99.90
13606;DHT22;6874;52.084;5.090;2022-09-29T15:39:04;14.90;99.90
13606;DHT22;6874;52.084;5.090;2022-09-29T15:41:31;14.90;99.90
13606;DHT22;6874;52.084;5.090;2022-09-29T15:44:02;14.80;99.90
13606;DHT22;6874;52.084;5.090;2022-09-29T15:51:29;14.70;99.90
13606;DHT22;6874;52.084;5.090;2022-09-29T15:53:55;14.70;99.90
13606;DHT22;6874;52.084;5.090;2022-09-29T15:56:21;14.70;99.90
13606;DHT22;6874;52.084;5.090;2022-09-29T15:58:47;14.60;99.90
13606;DHT22;6874;52.084;5.090;2022-09-29T16:01:14;14.60;99.90
13606;DHT22;6874;52.084;5.090;2022-09-29T16:03:55;14.60;99.90
13606;DHT22;6874;52.084;5.090;2022-09-29T16:06:31;14.50;99.90
13606;DHT22;6874;52.084;5.090;2022-09-29T16:09:17;14.50;99.90
13606;DHT22;6874;52.084;5.090;2022-09-29T16:11:43;14.40;99.90
13606;DHT22;6874;52.084;5.090;2022-09-29T16:14:21;14.40;99.90
13606;DHT22;6874;52.084;5.090;2022-09-29T16:16:49;14.30;99.90
13606;DHT22;6874;52.084;5.090;2022-09-29T16:19:23;14.30;99.90
13606;DHT22;6874;52.084;5.090;2022-09-29T16:21:57;14.40;99.90
13606;DHT22;6874;52.084;5.090;2022-09-29T16:24:31;14.20;99.90
13606;DHT22;6874;52.084;5.090;2022-09-29T16:26:58;14.20;99.90
13606;DHT22;6874;52.084;5.090;2022-09-29T16:29:35;14.10;99.90
13606;DHT22;6874;52.084;5.090;2022-09-29T16:32:34;14.10;99.90
13606;DHT22;6874;52.084;5.090;2022-09-29T16:35:36;14.00;99.90
13606;DHT22;6874;52.084;5.090;2022-09-29T16:41:12;14.00;99.90
13606;DHT22;6874;52.084;5.090;2022-09-29T16:43:38;14.00;99.90
13606;DHT22;6874;52.084;5.090;2022-09-29T16:46:07;13.90;99.90
13606;DHT22;6874;52.084;5.090;2022-09-29T16:48:38;13.90;99.90
13606;DHT22;6874;52.084;5.090;2022-09-29T16:51:18;13.80;99.90
13606;DHT22;6874;52.084;5.090;2022-09-29T16:53:46;13.80;99.90
13606;DHT22;6874;52.084;5.090;2022-09-29T16:56:17;13.80;99.90
13606;DHT22;6874;52.084;5.090;2022-09-29T16:59:09;13.80;99.90
13606;DHT22;6874;52.084;5.090;2022-09-29T17:01:39;13.70;99.90
13606;DHT22;6874;52.084;5.090;2022-09-29T17:04:06;13.70;99.90
13606;DHT22;6874;52.084;5.090;2022-09-29T17:06:31;13.60;99.90
13606;DHT22;6874;52.084;5.090;2022-09-29T17:08:58;13.60;99.90
13606;DHT22;6874;52.084;5.090;2022-09-29T17:11:24;13.60;99.90
13606;DHT22;6874;52.084;5.090;2022-09-29T17:13:50;13.50;99.90
13606;DHT22;6874;52.084;5.090;2022-09-29T17:16:15;13.50;99.90
13606;DHT22;6874;52.084;5.090;2022-09-29T17:18:50;13.40;99.90
13606;DHT22;6874;52.084;5.090;2022-09-29T17:21:17;13.40;99.90
13606;DHT22;6874;52.084;5.090;2022-09-29T17:23:42;13.40;99.90
13606;DHT22;6874;52.084;5.090;2022-09-29T17:26:39;13.30;99.90
13606;DHT22;6874;52.084;5.090;2022-09-29T17:29:24;13.20;99.90
13606;DHT22;6874;52.084;5.090;2022-09-29T17:31:49;13.20;99.90
13606;DHT22;6874;52.084;5.090;2022-09-29T17:34:15;13.20;99.90
13606;DHT22;6874;52.084;5.090;2022-09-29T17:36:44;13.10;99.90
13606;DHT22;6874;52.084;5.090;2022-09-29T17:39:10;13.10;99.90
13606;DHT22;6874;52.084;5.090;2022-09-29T17:41:36;13.00;99.90
13606;DHT22;6874;52.084;5.090;2022-09-29T17:44:01;13.00;99.90
13606;DHT22;6874;52.084;5.090;2022-09-29T17:46:30;12.90;99.90
13606;DHT22;6874;52.084;5.090;2022-09-29T17:48:56;12.90;99.90
13606;DHT22;6874;52.084;5.090;2022-09-29T17:51:21;12.80;99.90
13606;DHT22;6874;52.084;5.090;2022-09-29T17:53:47;12.80;99.90
13606;DHT22;6874;52.084;5.090;2022-09-29T17:56:18;12.70;99.90
13606;DHT22;6874;52.084;5.090;2022-09-29T17:58:49;12.70;99.90
13606;DHT22;6874;52.084;5.090;2022-09-29T18:01:18;12.60;99.90
13606;DHT22;6874;52.084;5.090;2022-09-29T18:03:44;12.60;99.90
13606;DHT22;6874;52.084;5.090;2022-09-29T18:06:17;12.50;99.90
13606;DHT22;6874;52.084;5.090;2022-09-29T18:08:46;12.50;99.90
13606;DHT22;6874;52.084;5.090;2022-09-29T18:11:11;12.40;99.90
13606;DHT22;6874;52.084;5.090;2022-09-29T18:13:37;12.40;99.90
13606;DHT22;6874;52.084;5.090;2022-09-29T18:16:03;12.40;99.90
13606;DHT22;6874;52.084;5.090;2022-09-29T18:18:29;12.30;99.90
13606;DHT22;6874;52.084;5.090;2022-09-29T18:20:54;12.30;99.90
13606;DHT22;6874;52.084;5.090;2022-09-29T18:23:21;12.20;99.90
13606;DHT22;6874;52.084;5.090;2022-09-29T18:25:50;12.20;99.90
13606;DHT22;6874;52.084;5.090;2022-09-29T18:28:17;12.20;99.90
13606;DHT22;6874;52.084;5.090;2022-09-29T18:30:45;12.10;99.90
13606;DHT22;6874;52.084;5.090;2022-09-29T18:33:13;12.10;99.90
13606;DHT22;6874;52.084;5.090;2022-09-29T18:35:43;12.00;99.90
13606;DHT22;6874;52.084;5.090;2022-09-29T18:38:09;12.00;99.90
13606;DHT22;6874;52.084;5.090;2022-09-29T18:40:35;11.90;99.90
13606;DHT22;6874;52.084;5.090;2022-09-29T18:43:00;11.90;99.90
13606;DHT22;6874;52.084;5.090;2022-09-29T18:45:29;11.80;99.90
13606;DHT22;6874;52.084;5.090;2022-09-29T18:47:57;11.80;99.90
13606;DHT22;6874;52.084;5.090;2022-09-29T18:50:27;11.70;99.90
13606;DHT22;6874;52.084;5.090;2022-09-29T18:52:54;11.70;99.90
13606;DHT22;6874;52.084;5.090;2022-09-29T18:55:22;11.70;99.90